메인 페이지
METAR-TAF:

METAR-TAF

공항 :

Cut Bank, 몬태나, 미국

위도: 48-36-30N, 경도: 112-22-34W, 고도: 1175m

현재 날씨관측

예보는 33분 전, 09:56시(UTC)에 발표되었습니다.
북북서11kt
온도 -26°C
습도 69%
기압 1024 hPa
시정: 16.1km
맑음

METAR: KCTB 180956Z AUTO 34011KT 10SM CLR M26/M30 A3024 RMK AO2 SLP357 T12611300

시각: 03:29 (10:29 UTC)

예보

예보는 5 시간 4분 전, 05:25시(UTC)에 발표되었습니다.
예보 대상 시간: 18일 06시부터 19일 06시까지 (UTC)
7kt
시정: 10km
고도 20000ft 상공 구름 조금
18일 1200시부터 (UTC)
여러 방향의 바람 4kt
시정: 10km
고도 4000ft 상공 구름 보통
고도 7000ft 상공 구름 많음
18일 1700시부터 (UTC)
여러 방향의 바람 4kt
시정: 10km
고도 2000ft 상공 구름 보통
고도 4000ft 상공 구름 많음
19일 0300시부터 (UTC)
여러 방향의 바람 4kt
시정: 10km
고도 8000ft 상공 구름 많음

TAF: KCTB 180525Z 1806/1906 35007KT P6SM FEW200 FM181200 VRB04KT P6SM SCT040 BKN070 FM181700 VRB04KT P6SM SCT020 BKN040 FM190300 VRB04KT P6SM BKN080

4,000개 이상의 공항 관측 자료 및 예보 (METAR 및 TAF 보고).

지도상에서 검색 가능한 기상관측소가 노란 점과 빨간 점으로 표시되어 있습니다.

기상관측소 명을 보려면 표시 위로 마우스를 이동하세요.

날씨 관측과 예보를 보려면 클릭하세요.

지도 변경 : 확대하려면 엑스 표시가 있는 녹색 버튼, 축소하려면 빼기 표시가 있는 녹색 버튼, 다음 페이지의 지도를 보려면 녹색 화살표를 클릭하세요.


METAR-TAF: